sensor_id;sensor_type;location;lat;lon;timestamp;P1;durP1;ratioP1;P2;durP2;ratioP2
31652;SDS011;18261;53.648;9.910;2024-03-23T00:52:46;56.95;;;7.65;;
31652;SDS011;18261;53.648;9.910;2024-03-23T00:55:12;54.85;;;8.00;;
31652;SDS011;18261;53.648;9.910;2024-03-23T00:57:38;54.60;;;7.97;;
31652;SDS011;18261;53.648;9.910;2024-03-23T01:00:04;52.13;;;7.60;;
31652;SDS011;18261;53.648;9.910;2024-03-23T01:02:31;64.53;;;8.50;;
31652;SDS011;18261;53.648;9.910;2024-03-23T01:04:57;50.95;;;7.65;;
31652;SDS011;18261;53.648;9.910;2024-03-23T01:07:23;62.45;;;8.32;;
31652;SDS011;18261;53.648;9.910;2024-03-23T01:09:49;69.50;;;8.95;;
31652;SDS011;18261;53.648;9.910;2024-03-23T01:12:17;70.57;;;7.63;;
31652;SDS011;18261;53.648;9.910;2024-03-23T01:14:43;64.82;;;8.43;;
31652;SDS011;18261;53.648;9.910;2024-03-23T01:17:09;54.13;;;7.75;;
31652;SDS011;18261;53.648;9.910;2024-03-23T01:19:35;58.55;;;7.88;;
31652;SDS011;18261;53.648;9.910;2024-03-23T01:22:01;65.93;;;7.57;;
31652;SDS011;18261;53.648;9.910;2024-03-23T01:24:27;65.28;;;8.35;;
31652;SDS011;18261;53.648;9.910;2024-03-23T01:26:53;64.30;;;8.48;;
31652;SDS011;18261;53.648;9.910;2024-03-23T01:29:19;52.72;;;8.05;;
31652;SDS011;18261;53.648;9.910;2024-03-23T01:31:45;58.30;;;7.05;;
31652;SDS011;18261;53.648;9.910;2024-03-23T01:34:11;64.38;;;7.90;;
31652;SDS011;18261;53.648;9.910;2024-03-23T01:36:37;56.72;;;7.47;;
31652;SDS011;18261;53.648;9.910;2024-03-23T01:39:04;66.47;;;9.20;;
31652;SDS011;18261;53.648;9.910;2024-03-23T01:41:29;55.85;;;8.65;;
31652;SDS011;18261;53.648;9.910;2024-03-23T01:43:55;67.38;;;9.20;;
31652;SDS011;18261;53.648;9.910;2024-03-23T01:46:21;62.17;;;9.38;;
31652;SDS011;18261;53.648;9.910;2024-03-23T01:48:47;58.85;;;7.93;;
31652;SDS011;18261;53.648;9.910;2024-03-23T01:51:14;63.00;;;8.80;;
31652;SDS011;18261;53.648;9.910;2024-03-23T01:53:40;50.28;;;7.32;;
31652;SDS011;18261;53.648;9.910;2024-03-23T01:56:06;67.18;;;8.82;;
31652;SDS011;18261;53.648;9.910;2024-03-23T01:58:32;56.30;;;8.07;;
31652;SDS011;18261;53.648;9.910;2024-03-23T02:00:58;62.05;;;8.38;;
31652;SDS011;18261;53.648;9.910;2024-03-23T02:03:27;63.72;;;8.20;;
31652;SDS011;18261;53.648;9.910;2024-03-23T02:05:54;54.40;;;7.43;;
31652;SDS011;18261;53.648;9.910;2024-03-23T02:08:20;59.17;;;8.48;;
31652;SDS011;18261;53.648;9.910;2024-03-23T02:10:49;61.65;;;8.80;;
31652;SDS011;18261;53.648;9.910;2024-03-23T02:13:16;44.47;;;7.85;;
31652;SDS011;18261;53.648;9.910;2024-03-23T02:15:42;56.40;;;8.20;;
31652;SDS011;18261;53.648;9.910;2024-03-23T02:18:08;56.50;;;8.00;;
31652;SDS011;18261;53.648;9.910;2024-03-23T02:20:35;53.47;;;6.88;;
31652;SDS011;18261;53.648;9.910;2024-03-23T02:23:01;67.82;;;8.88;;
31652;SDS011;18261;53.648;9.910;2024-03-23T02:25:27;59.97;;;8.00;;
31652;SDS011;18261;53.648;9.910;2024-03-23T02:27:53;62.33;;;7.97;;
31652;SDS011;18261;53.648;9.910;2024-03-23T02:30:19;60.67;;;8.15;;
31652;SDS011;18261;53.648;9.910;2024-03-23T02:32:46;57.53;;;7.55;;
31652;SDS011;18261;53.648;9.910;2024-03-23T02:35:12;62.65;;;7.55;;
31652;SDS011;18261;53.648;9.910;2024-03-23T02:37:38;49.95;;;7.35;;
31652;SDS011;18261;53.648;9.910;2024-03-23T02:40:04;71.05;;;8.55;;
31652;SDS011;18261;53.648;9.910;2024-03-23T02:42:30;65.90;;;8.13;;
31652;SDS011;18261;53.648;9.910;2024-03-23T02:44:56;69.20;;;8.38;;
31652;SDS011;18261;53.648;9.910;2024-03-23T02:47:22;68.72;;;8.73;;
31652;SDS011;18261;53.648;9.910;2024-03-23T02:49:48;50.35;;;7.82;;
31652;SDS011;18261;53.648;9.910;2024-03-23T02:52:14;60.40;;;8.68;;
31652;SDS011;18261;53.648;9.910;2024-03-23T02:54:40;66.95;;;8.82;;
31652;SDS011;18261;53.648;9.910;2024-03-23T02:57:09;62.88;;;8.10;;
31652;SDS011;18261;53.648;9.910;2024-03-23T02:59:35;46.13;;;6.78;;
31652;SDS011;18261;53.648;9.910;2024-03-23T03:02:01;55.55;;;7.70;;
31652;SDS011;18261;53.648;9.910;2024-03-23T03:04:29;47.40;;;7.03;;
31652;SDS011;18261;53.648;9.910;2024-03-23T03:06:55;67.25;;;7.80;;
31652;SDS011;18261;53.648;9.910;2024-03-23T03:09:21;60.72;;;7.15;;
31652;SDS011;18261;53.648;9.910;2024-03-23T03:11:47;55.30;;;8.25;;
31652;SDS011;18261;53.648;9.910;2024-03-23T03:14:13;49.03;;;7.00;;
31652;SDS011;18261;53.648;9.910;2024-03-23T03:16:39;53.10;;;7.63;;
31652;SDS011;18261;53.648;9.910;2024-03-23T03:19:05;57.38;;;7.68;;
31652;SDS011;18261;53.648;9.910;2024-03-23T03:21:31;57.05;;;7.75;;
31652;SDS011;18261;53.648;9.910;2024-03-23T03:23:57;50.35;;;9.05;;
31652;SDS011;18261;53.648;9.910;2024-03-23T03:26:23;59.20;;;7.47;;
31652;SDS011;18261;53.648;9.910;2024-03-23T03:28:50;59.60;;;8.35;;
31652;SDS011;18261;53.648;9.910;2024-03-23T03:31:16;50.08;;;7.88;;
31652;SDS011;18261;53.648;9.910;2024-03-23T03:33:43;66.40;;;8.18;;
31652;SDS011;18261;53.648;9.910;2024-03-23T03:36:09;60.50;;;7.82;;
31652;SDS011;18261;53.648;9.910;2024-03-23T03:38:35;63.33;;;8.27;;
31652;SDS011;18261;53.648;9.910;2024-03-23T03:41:03;57.70;;;8.85;;
31652;SDS011;18261;53.648;9.910;2024-03-23T03:43:31;57.42;;;7.93;;
31652;SDS011;18261;53.648;9.910;2024-03-23T03:45:57;47.60;;;7.00;;
31652;SDS011;18261;53.648;9.910;2024-03-23T03:48:23;60.35;;;8.02;;
31652;SDS011;18261;53.648;9.910;2024-03-23T03:50:49;61.97;;;8.38;;
31652;SDS011;18261;53.648;9.910;2024-03-23T03:53:15;64.93;;;7.85;;
31652;SDS011;18261;53.648;9.910;2024-03-23T03:55:41;54.47;;;7.50;;
31652;SDS011;18261;53.648;9.910;2024-03-23T03:58:07;55.20;;;7.15;;
31652;SDS011;18261;53.648;9.910;2024-03-23T04:00:33;56.30;;;7.15;;
31652;SDS011;18261;53.648;9.910;2024-03-23T04:03:00;56.58;;;8.20;;
31652;SDS011;18261;53.648;9.910;2024-03-23T04:05:26;61.92;;;8.73;;
31652;SDS011;18261;53.648;9.910;2024-03-23T04:07:53;60.15;;;7.68;;
31652;SDS011;18261;53.648;9.910;2024-03-23T04:10:20;50.88;;;6.60;;
31652;SDS011;18261;53.648;9.910;2024-03-23T04:12:46;66.72;;;8.32;;
31652;SDS011;18261;53.648;9.910;2024-03-23T04:15:13;49.63;;;7.45;;
31652;SDS011;18261;53.648;9.910;2024-03-23T04:17:39;53.45;;;7.18;;
31652;SDS011;18261;53.648;9.910;2024-03-23T04:20:07;47.88;;;6.90;;
31652;SDS011;18261;53.648;9.910;2024-03-23T04:22:49;53.80;;;7.63;;
31652;SDS011;18261;53.648;9.910;2024-03-23T04:25:16;61.17;;;6.57;;
31652;SDS011;18261;53.648;9.910;2024-03-23T04:27:44;59.72;;;8.15;;
31652;SDS011;18261;53.648;9.910;2024-03-23T04:30:11;59.70;;;7.40;;
31652;SDS011;18261;53.648;9.910;2024-03-23T04:32:37;58.33;;;7.00;;
31652;SDS011;18261;53.648;9.910;2024-03-23T04:35:04;55.40;;;8.13;;
31652;SDS011;18261;53.648;9.910;2024-03-23T04:37:36;49.00;;;7.70;;
31652;SDS011;18261;53.648;9.910;2024-03-23T04:40:03;55.63;;;8.05;;
31652;SDS011;18261;53.648;9.910;2024-03-23T04:42:29;57.55;;;7.47;;
31652;SDS011;18261;53.648;9.910;2024-03-23T04:44:55;51.05;;;7.32;;
31652;SDS011;18261;53.648;9.910;2024-03-23T04:47:21;58.13;;;7.28;;
31652;SDS011;18261;53.648;9.910;2024-03-23T04:49:47;46.78;;;6.55;;
31652;SDS011;18261;53.648;9.910;2024-03-23T04:52:13;67.38;;;7.55;;
31652;SDS011;18261;53.648;9.910;2024-03-23T04:54:40;67.18;;;7.40;;
31652;SDS011;18261;53.648;9.910;2024-03-23T04:57:06;55.75;;;7.28;;
31652;SDS011;18261;53.648;9.910;2024-03-23T04:59:32;52.17;;;6.78;;
31652;SDS011;18261;53.648;9.910;2024-03-23T05:01:58;46.60;;;7.05;;
31652;SDS011;18261;53.648;9.910;2024-03-23T05:04:24;64.38;;;6.95;;
31652;SDS011;18261;53.648;9.910;2024-03-23T05:06:51;47.53;;;7.40;;
31652;SDS011;18261;53.648;9.910;2024-03-23T05:09:17;50.88;;;8.02;;
31652;SDS011;18261;53.648;9.910;2024-03-23T05:11:43;52.88;;;7.55;;
31652;SDS011;18261;53.648;9.910;2024-03-23T05:14:09;49.33;;;7.38;;
31652;SDS011;18261;53.648;9.910;2024-03-23T05:16:35;47.08;;;7.65;;
31652;SDS011;18261;53.648;9.910;2024-03-23T05:19:01;50.00;;;7.50;;
31652;SDS011;18261;53.648;9.910;2024-03-23T05:21:27;49.55;;;6.75;;
31652;SDS011;18261;53.648;9.910;2024-03-23T05:23:55;48.92;;;6.93;;
31652;SDS011;18261;53.648;9.910;2024-03-23T05:26:22;66.40;;;8.25;;
31652;SDS011;18261;53.648;9.910;2024-03-23T05:28:48;53.35;;;7.25;;
31652;SDS011;18261;53.648;9.910;2024-03-23T05:31:24;61.03;;;7.28;;
31652;SDS011;18261;53.648;9.910;2024-03-23T05:33:50;53.63;;;7.45;;
31652;SDS011;18261;53.648;9.910;2024-03-23T05:36:16;60.45;;;7.38;;
31652;SDS011;18261;53.648;9.910;2024-03-23T05:38:41;52.25;;;7.25;;
31652;SDS011;18261;53.648;9.910;2024-03-23T05:41:07;49.90;;;7.15;;
31652;SDS011;18261;53.648;9.910;2024-03-23T05:43:33;55.53;;;8.20;;
31652;SDS011;18261;53.648;9.910;2024-03-23T05:46:00;54.47;;;7.53;;
31652;SDS011;18261;53.648;9.910;2024-03-23T05:48:35;56.88;;;7.90;;
31652;SDS011;18261;53.648;9.910;2024-03-23T05:51:01;50.22;;;6.55;;
31652;SDS011;18261;53.648;9.910;2024-03-23T05:53:27;55.05;;;7.82;;
31652;SDS011;18261;53.648;9.910;2024-03-23T05:56:01;47.30;;;6.97;;
31652;SDS011;18261;53.648;9.910;2024-03-23T05:58:31;49.00;;;6.68;;
31652;SDS011;18261;53.648;9.910;2024-03-23T06:00:58;66.93;;;8.60;;
31652;SDS011;18261;53.648;9.910;2024-03-23T06:03:25;55.80;;;7.65;;
31652;SDS011;18261;53.648;9.910;2024-03-23T06:05:51;60.53;;;7.40;;
31652;SDS011;18261;53.648;9.910;2024-03-23T06:08:18;52.92;;;8.00;;
31652;SDS011;18261;53.648;9.910;2024-03-23T06:10:44;52.78;;;7.70;;
31652;SDS011;18261;53.648;9.910;2024-03-23T06:13:10;48.40;;;7.90;;
31652;SDS011;18261;53.648;9.910;2024-03-23T06:15:37;56.05;;;7.72;;
31652;SDS011;18261;53.648;9.910;2024-03-23T06:18:03;55.65;;;8.38;;
31652;SDS011;18261;53.648;9.910;2024-03-23T06:20:30;52.88;;;7.00;;
31652;SDS011;18261;53.648;9.910;2024-03-23T06:22:56;54.85;;;6.88;;
31652;SDS011;18261;53.648;9.910;2024-03-23T06:25:22;50.90;;;7.05;;
31652;SDS011;18261;53.648;9.910;2024-03-23T06:27:48;50.85;;;7.13;;
31652;SDS011;18261;53.648;9.910;2024-03-23T06:30:14;51.30;;;7.60;;
31652;SDS011;18261;53.648;9.910;2024-03-23T06:32:40;47.53;;;8.05;;
31652;SDS011;18261;53.648;9.910;2024-03-23T06:35:06;44.53;;;8.57;;
31652;SDS011;18261;53.648;9.910;2024-03-23T06:37:35;47.65;;;7.68;;
31652;SDS011;18261;53.648;9.910;2024-03-23T06:40:02;48.50;;;6.07;;
31652;SDS011;18261;53.648;9.910;2024-03-23T06:42:31;45.83;;;6.70;;
31652;SDS011;18261;53.648;9.910;2024-03-23T06:44:58;56.80;;;8.25;;
31652;SDS011;18261;53.648;9.910;2024-03-23T06:47:24;54.15;;;7.00;;
31652;SDS011;18261;53.648;9.910;2024-03-23T06:49:50;44.47;;;6.88;;
31652;SDS011;18261;53.648;9.910;2024-03-23T06:52:16;45.92;;;6.57;;
31652;SDS011;18261;53.648;9.910;2024-03-23T06:54:42;59.83;;;8.52;;
31652;SDS011;18261;53.648;9.910;2024-03-23T06:57:09;48.85;;;7.10;;
31652;SDS011;18261;53.648;9.910;2024-03-23T06:59:36;52.28;;;6.88;;
31652;SDS011;18261;53.648;9.910;2024-03-23T07:02:03;46.38;;;6.85;;
31652;SDS011;18261;53.648;9.910;2024-03-23T07:04:29;58.47;;;7.32;;
31652;SDS011;18261;53.648;9.910;2024-03-23T07:06:55;48.67;;;7.32;;
31652;SDS011;18261;53.648;9.910;2024-03-23T07:09:21;63.95;;;8.45;;
31652;SDS011;18261;53.648;9.910;2024-03-23T07:11:51;47.17;;;8.10;;
31652;SDS011;18261;53.648;9.910;2024-03-23T07:14:17;52.33;;;9.43;;
31652;SDS011;18261;53.648;9.910;2024-03-23T07:16:42;48.72;;;6.60;;
31652;SDS011;18261;53.648;9.910;2024-03-23T07:19:08;57.30;;;7.65;;
31652;SDS011;18261;53.648;9.910;2024-03-23T07:21:34;43.90;;;7.22;;
31652;SDS011;18261;53.648;9.910;2024-03-23T07:24:00;54.80;;;7.05;;
31652;SDS011;18261;53.648;9.910;2024-03-23T07:26:26;42.10;;;7.43;;
31652;SDS011;18261;53.648;9.910;2024-03-23T07:28:53;46.90;;;7.50;;
31652;SDS011;18261;53.648;9.910;2024-03-23T07:31:19;44.40;;;6.55;;
31652;SDS011;18261;53.648;9.910;2024-03-23T07:33:46;49.15;;;7.45;;
31652;SDS011;18261;53.648;9.910;2024-03-23T07:36:12;45.47;;;6.57;;
31652;SDS011;18261;53.648;9.910;2024-03-23T07:38:40;50.92;;;7.28;;
31652;SDS011;18261;53.648;9.910;2024-03-23T07:41:10;59.35;;;6.60;;
31652;SDS011;18261;53.648;9.910;2024-03-23T07:43:36;43.33;;;7.05;;
31652;SDS011;18261;53.648;9.910;2024-03-23T07:46:03;47.47;;;8.15;;
31652;SDS011;18261;53.648;9.910;2024-03-23T07:48:29;54.60;;;6.70;;
31652;SDS011;18261;53.648;9.910;2024-03-23T07:51:02;52.00;;;7.25;;
31652;SDS011;18261;53.648;9.910;2024-03-23T07:53:32;40.38;;;6.82;;
31652;SDS011;18261;53.648;9.910;2024-03-23T07:55:59;43.53;;;6.75;;
31652;SDS011;18261;53.648;9.910;2024-03-23T07:58:26;40.90;;;6.72;;
31652;SDS011;18261;53.648;9.910;2024-03-23T08:00:52;44.05;;;6.70;;
31652;SDS011;18261;53.648;9.910;2024-03-23T08:03:18;52.08;;;6.80;;
31652;SDS011;18261;53.648;9.910;2024-03-23T08:05:44;42.55;;;6.40;;
31652;SDS011;18261;53.648;9.910;2024-03-23T08:08:10;46.78;;;7.45;;
31652;SDS011;18261;53.648;9.910;2024-03-23T08:10:37;54.45;;;6.60;;
31652;SDS011;18261;53.648;9.910;2024-03-23T08:13:03;48.38;;;6.90;;
31652;SDS011;18261;53.648;9.910;2024-03-23T08:15:30;56.13;;;7.00;;
31652;SDS011;18261;53.648;9.910;2024-03-23T08:17:58;45.78;;;6.03;;
31652;SDS011;18261;53.648;9.910;2024-03-23T08:20:24;50.80;;;7.35;;
31652;SDS011;18261;53.648;9.910;2024-03-23T08:22:50;38.17;;;6.03;;
31652;SDS011;18261;53.648;9.910;2024-03-23T08:25:16;40.85;;;5.65;;
31652;SDS011;18261;53.648;9.910;2024-03-23T08:27:44;46.88;;;6.53;;
31652;SDS011;18261;53.648;9.910;2024-03-23T08:30:10;46.97;;;6.35;;
31652;SDS011;18261;53.648;9.910;2024-03-23T08:32:36;48.45;;;6.88;;
31652;SDS011;18261;53.648;9.910;2024-03-23T08:35:02;54.13;;;7.28;;
31652;SDS011;18261;53.648;9.910;2024-03-23T08:37:28;40.55;;;5.90;;
31652;SDS011;18261;53.648;9.910;2024-03-23T08:39:54;38.10;;;5.82;;
31652;SDS011;18261;53.648;9.910;2024-03-23T08:42:21;46.75;;;6.72;;
31652;SDS011;18261;53.648;9.910;2024-03-23T08:44:47;37.15;;;6.18;;
31652;SDS011;18261;53.648;9.910;2024-03-23T08:47:16;40.90;;;5.57;;
31652;SDS011;18261;53.648;9.910;2024-03-23T08:49:42;40.28;;;6.45;;
31652;SDS011;18261;53.648;9.910;2024-03-23T08:52:08;41.47;;;6.32;;
31652;SDS011;18261;53.648;9.910;2024-03-23T08:54:34;38.42;;;5.65;;
31652;SDS011;18261;53.648;9.910;2024-03-23T08:57:00;38.63;;;5.50;;
31652;SDS011;18261;53.648;9.910;2024-03-23T08:59:26;35.78;;;5.80;;
31652;SDS011;18261;53.648;9.910;2024-03-23T09:01:52;36.20;;;4.88;;
31652;SDS011;18261;53.648;9.910;2024-03-23T09:04:19;29.23;;;4.57;;
31652;SDS011;18261;53.648;9.910;2024-03-23T09:06:45;32.00;;;5.63;;
31652;SDS011;18261;53.648;9.910;2024-03-23T09:09:10;33.92;;;5.63;;
31652;SDS011;18261;53.648;9.910;2024-03-23T09:11:36;43.25;;;6.57;;
31652;SDS011;18261;53.648;9.910;2024-03-23T09:14:03;29.83;;;5.18;;
31652;SDS011;18261;53.648;9.910;2024-03-23T09:16:29;41.13;;;5.90;;
31652;SDS011;18261;53.648;9.910;2024-03-23T09:18:55;34.92;;;5.55;;
31652;SDS011;18261;53.648;9.910;2024-03-23T09:21:21;32.15;;;4.90;;
31652;SDS011;18261;53.648;9.910;2024-03-23T09:23:47;42.33;;;6.50;;
31652;SDS011;18261;53.648;9.910;2024-03-23T09:26:14;32.75;;;5.38;;
31652;SDS011;18261;53.648;9.910;2024-03-23T09:28:40;42.42;;;5.78;;
31652;SDS011;18261;53.648;9.910;2024-03-23T09:31:06;30.33;;;5.18;;
31652;SDS011;18261;53.648;9.910;2024-03-23T09:33:33;30.73;;;4.80;;
31652;SDS011;18261;53.648;9.910;2024-03-23T09:36:02;36.28;;;5.15;;
31652;SDS011;18261;53.648;9.910;2024-03-23T09:38:28;21.30;;;3.90;;
31652;SDS011;18261;53.648;9.910;2024-03-23T09:40:55;23.52;;;4.65;;
31652;SDS011;18261;53.648;9.910;2024-03-23T09:43:21;32.95;;;4.68;;
31652;SDS011;18261;53.648;9.910;2024-03-23T09:45:48;33.42;;;5.07;;
31652;SDS011;18261;53.648;9.910;2024-03-23T09:48:14;35.22;;;5.15;;
31652;SDS011;18261;53.648;9.910;2024-03-23T09:50:41;27.63;;;4.97;;
31652;SDS011;18261;53.648;9.910;2024-03-23T09:53:08;27.05;;;4.57;;
31652;SDS011;18261;53.648;9.910;2024-03-23T09:55:36;33.80;;;4.30;;
31652;SDS011;18261;53.648;9.910;2024-03-23T09:58:02;29.80;;;4.63;;
31652;SDS011;18261;53.648;9.910;2024-03-23T10:00:29;25.75;;;4.80;;
31652;SDS011;18261;53.648;9.910;2024-03-23T10:02:55;32.40;;;4.90;;
31652;SDS011;18261;53.648;9.910;2024-03-23T10:05:27;31.83;;;5.38;;
31652;SDS011;18261;53.648;9.910;2024-03-23T10:07:53;32.85;;;5.30;;
31652;SDS011;18261;53.648;9.910;2024-03-23T10:10:19;33.38;;;5.20;;
31652;SDS011;18261;53.648;9.910;2024-03-23T10:12:49;35.33;;;9.93;;
31652;SDS011;18261;53.648;9.910;2024-03-23T10:15:21;31.20;;;5.03;;
31652;SDS011;18261;53.648;9.910;2024-03-23T10:17:48;30.98;;;4.40;;
31652;SDS011;18261;53.648;9.910;2024-03-23T10:20:23;22.40;;;3.88;;
31652;SDS011;18261;53.648;9.910;2024-03-23T10:22:49;24.25;;;3.28;;
31652;SDS011;18261;53.648;9.910;2024-03-23T10:25:23;13.95;;;2.92;;
31652;SDS011;18261;53.648;9.910;2024-03-23T10:27:58;17.50;;;3.33;;
31652;SDS011;18261;53.648;9.910;2024-03-23T10:30:24;20.70;;;3.10;;
31652;SDS011;18261;53.648;9.910;2024-03-23T10:33:11;21.75;;;3.05;;
31652;SDS011;18261;53.648;9.910;2024-03-23T10:35:37;15.50;;;3.40;;
31652;SDS011;18261;53.648;9.910;2024-03-23T10:38:07;16.02;;;2.60;;
31652;SDS011;18261;53.648;9.910;2024-03-23T10:40:36;15.57;;;2.83;;
31652;SDS011;18261;53.648;9.910;2024-03-23T10:43:03;24.17;;;3.40;;
31652;SDS011;18261;53.648;9.910;2024-03-23T10:45:29;18.98;;;3.05;;
31652;SDS011;18261;53.648;9.910;2024-03-23T10:47:56;13.68;;;2.60;;
31652;SDS011;18261;53.648;9.910;2024-03-23T10:50:36;16.73;;;3.00;;
31652;SDS011;18261;53.648;9.910;2024-03-23T10:53:02;20.75;;;4.88;;
31652;SDS011;18261;53.648;9.910;2024-03-23T10:55:28;16.52;;;3.60;;
31652;SDS011;18261;53.648;9.910;2024-03-23T10:57:55;13.52;;;2.45;;
31652;SDS011;18261;53.648;9.910;2024-03-23T11:00:23;16.83;;;2.90;;
31652;SDS011;18261;53.648;9.910;2024-03-23T11:02:49;19.02;;;3.30;;
31652;SDS011;18261;53.648;9.910;2024-03-23T11:07:51;16.42;;;4.13;;
31652;SDS011;18261;53.648;9.910;2024-03-23T11:10:24;18.05;;;3.50;;
31652;SDS011;18261;53.648;9.910;2024-03-23T11:12:51;17.77;;;3.33;;
31652;SDS011;18261;53.648;9.910;2024-03-23T11:15:17;24.63;;;3.70;;
31652;SDS011;18261;53.648;9.910;2024-03-23T11:18:01;23.30;;;3.60;;
31652;SDS011;18261;53.648;9.910;2024-03-23T11:20:31;16.95;;;3.00;;
31652;SDS011;18261;53.648;9.910;2024-03-23T11:22:57;13.73;;;2.65;;
31652;SDS011;18261;53.648;9.910;2024-03-23T11:25:23;12.27;;;2.47;;
31652;SDS011;18261;53.648;9.910;2024-03-23T11:27:57;16.73;;;3.00;;
31652;SDS011;18261;53.648;9.910;2024-03-23T11:30:24;16.50;;;2.97;;
31652;SDS011;18261;53.648;9.910;2024-03-23T11:32:51;11.48;;;2.17;;
31652;SDS011;18261;53.648;9.910;2024-03-23T11:35:25;19.40;;;2.95;;
31652;SDS011;18261;53.648;9.910;2024-03-23T11:40:29;28.90;;;8.25;;
31652;SDS011;18261;53.648;9.910;2024-03-23T11:42:56;20.67;;;4.30;;
31652;SDS011;18261;53.648;9.910;2024-03-23T11:45:22;32.15;;;4.57;;
31652;SDS011;18261;53.648;9.910;2024-03-23T11:47:48;23.85;;;5.50;;
31652;SDS011;18261;53.648;9.910;2024-03-23T11:50:20;21.88;;;3.58;;
31652;SDS011;18261;53.648;9.910;2024-03-23T11:52:46;11.57;;;2.42;;
31652;SDS011;18261;53.648;9.910;2024-03-23T11:55:12;8.73;;;1.80;;
31652;SDS011;18261;53.648;9.910;2024-03-23T11:57:38;10.40;;;1.90;;
31652;SDS011;18261;53.648;9.910;2024-03-23T12:00:19;6.95;;;1.50;;
31652;SDS011;18261;53.648;9.910;2024-03-23T12:02:45;10.52;;;1.48;;
31652;SDS011;18261;53.648;9.910;2024-03-23T12:05:15;5.20;;;1.55;;
31652;SDS011;18261;53.648;9.910;2024-03-23T12:07:41;8.55;;;1.40;;
31652;SDS011;18261;53.648;9.910;2024-03-23T12:10:07;10.35;;;5.15;;
31652;SDS011;18261;53.648;9.910;2024-03-23T12:12:33;26.73;;;12.07;;
31652;SDS011;18261;53.648;9.910;2024-03-23T12:15:08;7.88;;;1.63;;
31652;SDS011;18261;53.648;9.910;2024-03-23T12:17:35;13.50;;;1.90;;
31652;SDS011;18261;53.648;9.910;2024-03-23T12:20:01;5.80;;;1.45;;
31652;SDS011;18261;53.648;9.910;2024-03-23T12:22:27;7.07;;;1.58;;
31652;SDS011;18261;53.648;9.910;2024-03-23T12:24:54;6.30;;;1.55;;
31652;SDS011;18261;53.648;9.910;2024-03-23T12:27:21;8.98;;;2.67;;
31652;SDS011;18261;53.648;9.910;2024-03-23T12:29:47;6.88;;;2.00;;
31652;SDS011;18261;53.648;9.910;2024-03-23T12:32:14;10.70;;;1.67;;
31652;SDS011;18261;53.648;9.910;2024-03-23T12:34:41;5.00;;;1.30;;
31652;SDS011;18261;53.648;9.910;2024-03-23T12:37:08;3.88;;;1.50;;
31652;SDS011;18261;53.648;9.910;2024-03-23T12:39:34;7.30;;;2.67;;
31652;SDS011;18261;53.648;9.910;2024-03-23T12:42:01;10.10;;;2.88;;
31652;SDS011;18261;53.648;9.910;2024-03-23T12:44:30;6.00;;;1.80;;
31652;SDS011;18261;53.648;9.910;2024-03-23T12:46:56;5.43;;;1.90;;
31652;SDS011;18261;53.648;9.910;2024-03-23T12:49:22;2.90;;;0.90;;
31652;SDS011;18261;53.648;9.910;2024-03-23T12:51:55;1.90;;;0.90;;
31652;SDS011;18261;53.648;9.910;2024-03-23T12:54:21;4.20;;;1.17;;
31652;SDS011;18261;53.648;9.910;2024-03-23T12:56:47;3.45;;;1.25;;
31652;SDS011;18261;53.648;9.910;2024-03-23T12:59:14;6.18;;;1.45;;
31652;SDS011;18261;53.648;9.910;2024-03-23T13:01:41;7.22;;;2.15;;
31652;SDS011;18261;53.648;9.910;2024-03-23T13:04:08;1.90;;;0.85;;
31652;SDS011;18261;53.648;9.910;2024-03-23T13:06:34;5.72;;;0.98;;
31652;SDS011;18261;53.648;9.910;2024-03-23T13:09:01;1.60;;;0.70;;
31652;SDS011;18261;53.648;9.910;2024-03-23T13:11:28;4.60;;;1.00;;
31652;SDS011;18261;53.648;9.910;2024-03-23T13:13:54;3.90;;;1.20;;
31652;SDS011;18261;53.648;9.910;2024-03-23T13:16:20;4.25;;;1.00;;
31652;SDS011;18261;53.648;9.910;2024-03-23T13:18:46;5.68;;;1.38;;
31652;SDS011;18261;53.648;9.910;2024-03-23T13:21:12;6.90;;;1.13;;
31652;SDS011;18261;53.648;9.910;2024-03-23T13:23:38;8.45;;;1.70;;
31652;SDS011;18261;53.648;9.910;2024-03-23T13:26:07;7.38;;;1.58;;
31652;SDS011;18261;53.648;9.910;2024-03-23T13:28:33;6.90;;;1.65;;
31652;SDS011;18261;53.648;9.910;2024-03-23T13:31:00;10.95;;;1.98;;
31652;SDS011;18261;53.648;9.910;2024-03-23T13:33:28;8.48;;;1.40;;
31652;SDS011;18261;53.648;9.910;2024-03-23T13:35:55;6.93;;;1.48;;
31652;SDS011;18261;53.648;9.910;2024-03-23T13:38:22;7.15;;;1.45;;
31652;SDS011;18261;53.648;9.910;2024-03-23T13:40:55;5.15;;;1.50;;
31652;SDS011;18261;53.648;9.910;2024-03-23T13:43:21;5.03;;;1.20;;
31652;SDS011;18261;53.648;9.910;2024-03-23T13:45:48;7.43;;;2.15;;
31652;SDS011;18261;53.648;9.910;2024-03-23T13:48:15;8.73;;;3.00;;
31652;SDS011;18261;53.648;9.910;2024-03-23T13:50:41;9.55;;;4.55;;
31652;SDS011;18261;53.648;9.910;2024-03-23T13:53:07;11.95;;;4.30;;
31652;SDS011;18261;53.648;9.910;2024-03-23T13:55:33;6.03;;;1.70;;
31652;SDS011;18261;53.648;9.910;2024-03-23T13:57:59;9.30;;;1.90;;
31652;SDS011;18261;53.648;9.910;2024-03-23T14:00:25;7.03;;;2.67;;
31652;SDS011;18261;53.648;9.910;2024-03-23T14:02:51;7.53;;;1.63;;
31652;SDS011;18261;53.648;9.910;2024-03-23T14:05:17;7.20;;;2.17;;
31652;SDS011;18261;53.648;9.910;2024-03-23T14:07:43;6.95;;;2.00;;
31652;SDS011;18261;53.648;9.910;2024-03-23T14:10:09;8.63;;;3.20;;
31652;SDS011;18261;53.648;9.910;2024-03-23T14:12:36;15.23;;;5.03;;
31652;SDS011;18261;53.648;9.910;2024-03-23T14:15:05;13.70;;;2.75;;
31652;SDS011;18261;53.648;9.910;2024-03-23T14:17:32;16.85;;;2.88;;
31652;SDS011;18261;53.648;9.910;2024-03-23T14:19:58;10.73;;;2.35;;
31652;SDS011;18261;53.648;9.910;2024-03-23T14:22:30;11.13;;;2.40;;
31652;SDS011;18261;53.648;9.910;2024-03-23T14:24:56;7.55;;;2.20;;
31652;SDS011;18261;53.648;9.910;2024-03-23T14:27:22;14.60;;;2.92;;
31652;SDS011;18261;53.648;9.910;2024-03-23T14:29:48;11.88;;;2.50;;
31652;SDS011;18261;53.648;9.910;2024-03-23T14:32:14;10.30;;;1.85;;
31652;SDS011;18261;53.648;9.910;2024-03-23T14:34:40;11.45;;;2.22;;
31652;SDS011;18261;53.648;9.910;2024-03-23T14:37:06;11.63;;;2.35;;
31652;SDS011;18261;53.648;9.910;2024-03-23T14:39:33;15.05;;;3.83;;
31652;SDS011;18261;53.648;9.910;2024-03-23T14:42:00;7.88;;;2.50;;
31652;SDS011;18261;53.648;9.910;2024-03-23T14:44:26;14.38;;;5.30;;
31652;SDS011;18261;53.648;9.910;2024-03-23T14:46:53;18.70;;;4.75;;
31652;SDS011;18261;53.648;9.910;2024-03-23T14:49:20;11.50;;;2.92;;
31652;SDS011;18261;53.648;9.910;2024-03-23T14:51:46;12.23;;;3.38;;
31652;SDS011;18261;53.648;9.910;2024-03-23T14:54:12;14.45;;;2.67;;
31652;SDS011;18261;53.648;9.910;2024-03-23T14:56:39;12.20;;;2.30;;
31652;SDS011;18261;53.648;9.910;2024-03-23T14:59:05;10.05;;;1.50;;
31652;SDS011;18261;53.648;9.910;2024-03-23T15:01:32;16.05;;;2.20;;
31652;SDS011;18261;53.648;9.910;2024-03-23T15:03:58;10.07;;;2.40;;
31652;SDS011;18261;53.648;9.910;2024-03-23T15:06:24;7.25;;;1.77;;
31652;SDS011;18261;53.648;9.910;2024-03-23T15:08:50;11.32;;;1.73;;
31652;SDS011;18261;53.648;9.910;2024-03-23T15:11:16;4.95;;;1.50;;
31652;SDS011;18261;53.648;9.910;2024-03-23T15:13:45;5.45;;;1.10;;
31652;SDS011;18261;53.648;9.910;2024-03-23T15:16:18;5.97;;;1.50;;
31652;SDS011;18261;53.648;9.910;2024-03-23T15:18:45;5.57;;;1.80;;
31652;SDS011;18261;53.648;9.910;2024-03-23T15:21:11;3.88;;;1.60;;
31652;SDS011;18261;53.648;9.910;2024-03-23T15:23:39;7.95;;;1.17;;
31652;SDS011;18261;53.648;9.910;2024-03-23T15:26:07;3.95;;;1.27;;
31652;SDS011;18261;53.648;9.910;2024-03-23T15:28:33;6.35;;;1.50;;
31652;SDS011;18261;53.648;9.910;2024-03-23T15:31:17;6.10;;;1.52;;